Terminal Aerodrome Forecast
Issued by NWS

Home | Current Version | Previous Version | Text Only | Print | Product List | Glossary On
Versions: 1 2 3 4 5 6 7 8 9 10 11 12 13 14 15 16
000
FTUS42 TJSJ 231730
TAFIST
TAF
TIST 231730Z 2318/2418 14012KT P6SM VCSH FEW023 SCT035 SCT080
     FM232300 10007KT P6SM VCSH SCT030 SCT060
     FM240200 13004KT P6SM VCSH SCT025 BKN040 PROB30 2408/2414 4SM
      RA BKN018 OVC030=

USA.gov is the U.S. government's official web portal to all federal, state and local government web resources and services.